createdAt,value
2019-03-22T00:00:35.164Z,5.77
2019-03-22T00:03:01.630Z,5.80
2019-03-22T00:05:28.173Z,6.10
2019-03-22T00:07:54.808Z,5.17
2019-03-22T00:10:21.233Z,5.80
2019-03-22T00:12:47.722Z,5.17
2019-03-22T00:15:15.538Z,5.47
2019-03-22T00:17:41.891Z,4.87
2019-03-22T00:20:08.371Z,4.47
2019-03-22T00:22:34.809Z,4.60
2019-03-22T00:25:01.508Z,4.70
2019-03-22T00:27:27.966Z,5.40
2019-03-22T00:29:54.334Z,5.20
2019-03-22T00:32:20.685Z,5.17
2019-03-22T00:34:47.070Z,5.20
2019-03-22T00:37:13.525Z,5.47
2019-03-22T00:39:39.891Z,5.40
2019-03-22T00:42:06.455Z,6.13
2019-03-22T00:44:32.846Z,6.10
2019-03-22T00:46:59.232Z,5.40
2019-03-22T00:49:25.798Z,6.23
2019-03-22T00:51:52.146Z,5.47
2019-03-22T00:54:18.619Z,6.10
2019-03-22T00:56:45.067Z,6.60
2019-03-22T00:59:11.560Z,6.00
2019-03-22T01:01:38.007Z,5.37
2019-03-22T01:04:04.489Z,5.57
2019-03-22T01:06:30.926Z,5.50
2019-03-22T01:08:57.307Z,5.40
2019-03-22T01:11:23.675Z,5.83
2019-03-22T01:13:50.140Z,5.33
2019-03-22T01:16:16.511Z,5.37
2019-03-22T01:18:43.096Z,5.70
2019-03-22T01:21:09.551Z,5.40
2019-03-22T01:23:35.917Z,5.40
2019-03-22T01:26:02.691Z,5.40
2019-03-22T01:28:29.058Z,5.20
2019-03-22T01:30:55.535Z,4.43
2019-03-22T01:33:21.898Z,4.97
2019-03-22T01:35:48.358Z,5.17
2019-03-22T01:38:14.812Z,5.87
2019-03-22T01:40:41.187Z,5.33
2019-03-22T01:43:07.628Z,5.63
2019-03-22T01:45:34.102Z,5.93
2019-03-22T01:48:00.663Z,5.30
2019-03-22T01:50:27.131Z,4.93
2019-03-22T01:52:53.583Z,4.90
2019-03-22T01:55:19.959Z,5.00
2019-03-22T01:57:53.186Z,5.40
2019-03-22T02:00:16.992Z,5.23
2019-03-22T02:05:31.399Z,4.47
2019-03-22T02:07:57.760Z,5.20
2019-03-22T02:10:24.243Z,5.00
2019-03-22T02:12:50.646Z,5.40
2019-03-22T02:15:17.232Z,4.73
2019-03-22T02:17:43.684Z,4.73
2019-03-22T02:20:11.252Z,5.17
2019-03-22T02:22:37.598Z,5.50
2019-03-22T02:25:04.868Z,4.63
2019-03-22T02:27:31.223Z,5.73
2019-03-22T02:29:57.582Z,5.17
2019-03-22T02:32:23.974Z,5.20
2019-03-22T02:34:50.327Z,4.90
2019-03-22T02:37:16.806Z,4.83
2019-03-22T02:39:43.378Z,5.60
2019-03-22T02:42:09.821Z,5.33
2019-03-22T02:44:36.200Z,5.27
2019-03-22T02:47:02.619Z,4.87
2019-03-22T02:49:29.150Z,5.50
2019-03-22T02:51:55.623Z,4.93
2019-03-22T02:54:22.184Z,5.77
2019-03-22T02:56:48.658Z,5.00
2019-03-22T02:59:15.204Z,5.03
2019-03-22T03:01:41.676Z,5.53
2019-03-22T03:04:08.226Z,5.33
2019-03-22T03:06:34.694Z,5.13
2019-03-22T03:09:01.248Z,5.53
2019-03-22T03:11:27.993Z,5.43
2019-03-22T03:13:54.404Z,4.87
2019-03-22T03:16:21.048Z,6.00
2019-03-22T03:18:47.398Z,5.37
2019-03-22T03:21:13.777Z,5.33
2019-03-22T03:23:40.223Z,5.40
2019-03-22T03:26:06.616Z,5.57
2019-03-22T03:28:37.003Z,5.10
2019-03-22T03:31:01.339Z,5.73
2019-03-22T03:33:27.796Z,5.60
2019-03-22T03:35:54.243Z,4.90
2019-03-22T03:38:20.718Z,5.57
2019-03-22T03:40:47.163Z,6.00
2019-03-22T03:43:13.759Z,5.80
2019-03-22T03:45:40.206Z,5.80
2019-03-22T03:48:07.468Z,4.97
2019-03-22T03:50:34.131Z,5.90
2019-03-22T03:53:00.615Z,5.17
2019-03-22T03:55:27.269Z,6.17
2019-03-22T03:57:53.846Z,5.63
2019-03-22T04:00:20.402Z,5.60
2019-03-22T04:02:46.858Z,5.47
2019-03-22T04:05:14.654Z,5.87
2019-03-22T04:07:41.387Z,5.50
2019-03-22T04:10:07.840Z,5.43
2019-03-22T04:12:34.230Z,5.97
2019-03-22T04:15:00.711Z,5.20
2019-03-22T04:17:27.190Z,6.13
2019-03-22T04:19:53.754Z,5.20
2019-03-22T04:22:20.108Z,5.53
2019-03-22T04:24:46.488Z,4.77
2019-03-22T04:27:12.963Z,5.47
2019-03-22T04:29:39.419Z,6.07
2019-03-22T04:32:05.883Z,5.70
2019-03-22T04:34:32.336Z,5.43
2019-03-22T04:36:58.816Z,5.30
2019-03-22T04:39:25.388Z,5.00
2019-03-22T04:41:51.749Z,5.53
2019-03-22T04:44:18.325Z,5.60
2019-03-22T04:46:45.275Z,5.63
2019-03-22T04:49:13.352Z,5.43
2019-03-22T04:51:40.392Z,5.83
2019-03-22T04:54:07.378Z,5.27
2019-03-22T04:56:35.323Z,6.17
2019-03-22T04:59:02.479Z,5.67
2019-03-22T05:01:30.139Z,6.33
2019-03-22T05:03:58.928Z,6.37
2019-03-22T05:06:25.475Z,5.80
2019-03-22T05:08:53.444Z,6.03
2019-03-22T05:11:20.519Z,6.03
2019-03-22T05:13:49.001Z,5.93
2019-03-22T05:16:16.282Z,5.90
2019-03-22T05:18:44.556Z,5.50
2019-03-22T05:21:12.412Z,6.00
2019-03-22T05:23:39.079Z,6.07
2019-03-22T05:26:05.526Z,6.10
2019-03-22T05:28:32.099Z,6.70
2019-03-22T05:31:00.339Z,7.83
2019-03-22T05:33:26.808Z,9.93
2019-03-22T05:35:53.353Z,12.10
2019-03-22T05:38:19.816Z,12.20
2019-03-22T05:40:46.193Z,9.80
2019-03-22T05:43:12.560Z,9.10
2019-03-22T05:45:39.119Z,6.77
2019-03-22T05:48:05.489Z,6.20
2019-03-22T05:50:31.937Z,6.43
2019-03-22T05:52:58.328Z,5.57
2019-03-22T05:55:24.782Z,6.10
2019-03-22T05:57:51.235Z,6.10
2019-03-22T06:00:17.915Z,5.20
2019-03-22T06:02:44.366Z,5.53
2019-03-22T06:05:10.929Z,6.00
2019-03-22T06:07:37.395Z,6.67
2019-03-22T06:10:04.246Z,6.87
2019-03-22T06:12:30.739Z,6.80
2019-03-22T06:14:59.168Z,6.10
2019-03-22T06:17:25.611Z,5.73
2019-03-22T06:19:52.203Z,6.03
2019-03-22T06:22:18.573Z,5.80
2019-03-22T06:24:45.139Z,6.50
2019-03-22T06:27:11.519Z,6.37
2019-03-22T06:29:38.102Z,6.20
2019-03-22T06:32:04.639Z,6.10
2019-03-22T06:34:31.103Z,6.93
2019-03-22T06:36:57.675Z,6.57
2019-03-22T06:39:24.067Z,6.30
2019-03-22T06:41:50.570Z,6.57
2019-03-22T06:44:17.034Z,6.93
2019-03-22T06:46:43.507Z,6.10
2019-03-22T06:49:10.058Z,5.63
2019-03-22T06:51:36.428Z,6.50
2019-03-22T06:54:02.895Z,6.17
2019-03-22T06:56:29.274Z,6.10
2019-03-22T06:58:55.619Z,5.90
2019-03-22T07:01:22.132Z,6.20
2019-03-22T07:03:48.633Z,6.23
2019-03-22T07:06:16.000Z,5.87
2019-03-22T07:08:42.384Z,6.50
2019-03-22T07:11:08.865Z,6.23
2019-03-22T07:13:35.358Z,6.37
2019-03-22T07:16:01.836Z,6.00
2019-03-22T07:18:28.386Z,6.83
2019-03-22T07:20:54.753Z,6.70
2019-03-22T07:23:21.104Z,7.07
2019-03-22T07:25:47.491Z,6.77
2019-03-22T07:28:13.944Z,6.80
2019-03-22T07:30:40.333Z,6.47
2019-03-22T07:33:06.779Z,6.43
2019-03-22T07:35:33.184Z,6.90
2019-03-22T07:37:59.748Z,7.30
2019-03-22T07:40:26.305Z,6.70
2019-03-22T07:42:52.768Z,6.73
2019-03-22T07:45:19.212Z,7.57
2019-03-22T07:47:45.687Z,7.77
2019-03-22T07:50:12.275Z,8.70
2019-03-22T07:52:38.664Z,7.20
2019-03-22T07:55:05.407Z,7.77
2019-03-22T07:57:31.886Z,7.43
2019-03-22T07:59:58.330Z,7.93
2019-03-22T08:02:25.700Z,7.57
2019-03-22T08:04:52.255Z,7.50
2019-03-22T08:07:18.719Z,7.13
2019-03-22T08:09:45.218Z,7.40
2019-03-22T08:12:11.686Z,7.30
2019-03-22T08:14:38.047Z,8.00
2019-03-22T08:17:07.278Z,7.20
2019-03-22T08:19:33.815Z,7.27
2019-03-22T08:22:00.378Z,7.70
2019-03-22T08:24:26.752Z,8.70
2019-03-22T08:26:53.315Z,8.03
2019-03-22T08:29:19.765Z,8.27
2019-03-22T08:31:46.228Z,9.03
2019-03-22T08:34:12.579Z,8.20
2019-03-22T08:36:38.949Z,7.97
2019-03-22T08:39:06.401Z,9.10
2019-03-22T08:41:32.882Z,9.43
2019-03-22T08:43:59.332Z,9.00
2019-03-22T08:46:25.806Z,8.87
2019-03-22T08:48:52.261Z,8.60
2019-03-22T08:51:18.627Z,8.30
2019-03-22T08:53:54.588Z,8.60
2019-03-22T08:56:13.459Z,7.77
2019-03-22T08:58:39.869Z,8.00
2019-03-22T09:01:06.527Z,7.87
2019-03-22T09:03:33.206Z,8.03
2019-03-22T09:05:59.739Z,9.00
2019-03-22T09:08:26.483Z,8.83
2019-03-22T09:10:52.923Z,8.50
2019-03-22T09:13:19.451Z,8.93
2019-03-22T09:15:45.795Z,8.10
2019-03-22T09:18:15.177Z,8.30
2019-03-22T09:20:40.636Z,7.70
2019-03-22T09:23:07.132Z,9.40
2019-03-22T09:25:33.570Z,8.07
2019-03-22T09:27:59.950Z,8.43
2019-03-22T09:30:26.491Z,9.25
2019-03-22T09:32:52.977Z,9.43
2019-03-22T09:35:19.332Z,8.83
2019-03-22T09:37:45.746Z,8.93
2019-03-22T09:40:12.251Z,8.65
2019-03-22T09:42:38.668Z,8.25
2019-03-22T09:45:06.161Z,8.70
2019-03-22T09:47:32.591Z,8.65
2019-03-22T09:49:59.112Z,8.73
2019-03-22T09:52:25.643Z,9.03
2019-03-22T09:54:52.175Z,8.53
2019-03-22T09:57:18.594Z,8.70
2019-03-22T09:59:45.129Z,8.40
2019-03-22T10:02:11.539Z,8.75
2019-03-22T10:04:38.155Z,8.90
2019-03-22T10:07:04.703Z,8.80
2019-03-22T10:09:31.071Z,8.23
2019-03-22T10:11:57.623Z,9.63
2019-03-22T10:14:24.040Z,8.70
2019-03-22T10:16:50.587Z,8.73
2019-03-22T10:19:17.326Z,8.00
2019-03-22T10:21:43.738Z,8.98
2019-03-22T10:24:10.235Z,8.55
2019-03-22T10:26:36.736Z,8.30
2019-03-22T10:29:03.225Z,8.03
2019-03-22T10:31:37.202Z,9.63
2019-03-22T10:33:58.213Z,10.15
2019-03-22T10:36:24.758Z,8.23
2019-03-22T10:38:51.580Z,8.93
2019-03-22T10:41:18.197Z,8.50
2019-03-22T10:43:44.671Z,8.40
2019-03-22T10:46:11.138Z,8.03
2019-03-22T10:48:37.510Z,8.18
2019-03-22T10:51:04.063Z,8.58
2019-03-22T10:53:30.661Z,7.35
2019-03-22T10:55:57.307Z,9.00
2019-03-22T10:58:23.893Z,8.00
2019-03-22T11:00:50.459Z,8.55
2019-03-22T11:03:16.809Z,7.47
2019-03-22T11:05:43.276Z,7.53
2019-03-22T11:08:09.731Z,8.05
2019-03-22T11:10:36.108Z,7.92
2019-03-22T11:13:02.824Z,9.23
2019-03-22T11:15:29.400Z,8.23
2019-03-22T11:17:55.767Z,8.75
2019-03-22T11:20:22.249Z,8.18
2019-03-22T11:22:48.704Z,8.08
2019-03-22T11:25:15.167Z,8.65
2019-03-22T11:27:41.624Z,8.33
2019-03-22T11:30:09.991Z,8.98
2019-03-22T11:32:36.499Z,8.20
2019-03-22T11:35:04.014Z,8.45
2019-03-22T11:37:30.572Z,8.75
2019-03-22T11:39:57.042Z,8.30
2019-03-22T11:42:23.489Z,8.48
2019-03-22T11:44:49.963Z,9.38
2019-03-22T11:47:16.325Z,9.75
2019-03-22T11:49:43.157Z,9.65
2019-03-22T11:52:09.600Z,8.85
2019-03-22T11:54:36.070Z,8.48
2019-03-22T11:57:02.917Z,8.10
2019-03-22T11:59:29.428Z,7.85
2019-03-22T12:01:55.971Z,8.48
2019-03-22T12:04:22.447Z,8.05
2019-03-22T12:06:48.807Z,9.00
2019-03-22T12:09:15.167Z,8.93
2019-03-22T12:11:42.237Z,8.78
2019-03-22T12:14:08.895Z,8.70
2019-03-22T12:16:35.276Z,8.80
2019-03-22T12:19:01.829Z,8.83
2019-03-22T12:21:28.295Z,8.70
2019-03-22T12:23:54.634Z,8.83
2019-03-22T12:26:21.107Z,8.28
2019-03-22T12:28:47.459Z,8.25
2019-03-22T12:31:13.830Z,8.33
2019-03-22T12:33:40.289Z,7.97
2019-03-22T12:36:06.863Z,8.10
2019-03-22T12:38:33.308Z,7.87
2019-03-22T12:40:59.774Z,7.62
2019-03-22T12:43:26.335Z,7.53
2019-03-22T12:45:52.906Z,8.15
2019-03-22T12:48:19.352Z,7.05
2019-03-22T12:50:45.887Z,7.50
2019-03-22T12:53:14.206Z,6.50
2019-03-22T12:55:40.706Z,7.30
2019-03-22T12:58:07.076Z,6.50
2019-03-22T13:00:33.544Z,6.60
2019-03-22T13:03:00.091Z,6.20
2019-03-22T13:05:26.458Z,6.15
2019-03-22T13:07:53.025Z,6.37
2019-03-22T13:10:20.707Z,5.25
2019-03-22T13:12:47.206Z,5.35
2019-03-22T13:15:13.679Z,6.10
2019-03-22T13:17:40.210Z,4.40
2019-03-22T13:20:09.254Z,5.28
2019-03-22T13:22:35.802Z,3.80
2019-03-22T13:25:03.064Z,4.28
2019-03-22T13:27:29.459Z,2.87
2019-03-22T13:29:56.018Z,2.50
2019-03-22T13:32:22.392Z,2.67
2019-03-22T13:34:48.745Z,2.45
2019-03-22T13:37:15.212Z,2.40
2019-03-22T13:39:41.763Z,2.40
2019-03-22T13:42:08.243Z,2.30
2019-03-22T13:44:34.795Z,2.20
2019-03-22T13:47:01.315Z,2.10
2019-03-22T13:49:27.663Z,2.22
2019-03-22T13:51:54.038Z,2.00
2019-03-22T13:54:20.424Z,1.90
2019-03-22T13:56:46.897Z,1.67
2019-03-22T13:59:13.376Z,1.77
2019-03-22T14:01:39.851Z,2.00
2019-03-22T14:04:06.248Z,2.05
2019-03-22T14:06:32.846Z,2.20
2019-03-22T14:08:59.199Z,1.82
2019-03-22T14:11:25.691Z,1.90
2019-03-22T14:13:52.260Z,1.92
2019-03-22T14:16:18.759Z,1.77
2019-03-22T14:18:45.356Z,1.70
2019-03-22T14:21:11.898Z,1.92
2019-03-22T14:23:38.319Z,1.70
2019-03-22T14:26:05.203Z,1.92
2019-03-22T14:28:31.787Z,1.77
2019-03-22T14:30:58.358Z,1.75
2019-03-22T14:33:24.947Z,1.85
2019-03-22T14:35:51.286Z,1.60
2019-03-22T14:38:17.760Z,1.82
2019-03-22T14:40:44.147Z,1.70
2019-03-22T14:43:10.714Z,1.87
2019-03-22T14:45:37.177Z,1.90
2019-03-22T14:48:03.644Z,1.60
2019-03-22T14:50:29.997Z,1.50
2019-03-22T14:52:56.359Z,1.95
2019-03-22T14:55:22.863Z,1.67
2019-03-22T14:57:52.262Z,1.82
2019-03-22T15:00:17.693Z,1.50
2019-03-22T15:02:44.263Z,1.60
2019-03-22T15:05:11.033Z,1.60
2019-03-22T15:07:37.502Z,1.57
2019-03-22T15:10:05.290Z,1.95
2019-03-22T15:12:31.792Z,1.55
2019-03-22T15:15:01.267Z,1.40
2019-03-22T15:17:30.107Z,1.65
2019-03-22T15:19:58.484Z,1.95
2019-03-22T15:22:26.767Z,1.45
2019-03-22T15:24:55.130Z,1.60
2019-03-22T15:27:26.321Z,1.80
2019-03-22T15:29:54.679Z,1.47
2019-03-22T15:32:23.055Z,1.65
2019-03-22T15:34:51.347Z,1.55
2019-03-22T15:37:19.795Z,1.77
2019-03-22T15:39:48.309Z,1.70
2019-03-22T15:42:14.785Z,1.40
2019-03-22T15:44:41.171Z,1.55
2019-03-22T15:47:07.628Z,1.70
2019-03-22T15:49:34.003Z,1.80
2019-03-22T15:52:00.568Z,1.85
2019-03-22T15:54:27.039Z,1.77
2019-03-22T15:56:53.409Z,1.32
2019-03-22T15:59:19.880Z,1.52
2019-03-22T16:01:46.431Z,1.80
2019-03-22T16:04:13.003Z,1.50
2019-03-22T16:06:39.456Z,1.70
2019-03-22T16:09:06.439Z,1.57
2019-03-22T16:11:32.797Z,1.50
2019-03-22T16:13:59.306Z,1.52
2019-03-22T16:16:25.806Z,1.75
2019-03-22T16:18:52.318Z,1.65
2019-03-22T16:21:18.873Z,1.55
2019-03-22T16:23:45.260Z,1.62
2019-03-22T16:26:11.615Z,1.75
2019-03-22T16:28:38.120Z,1.70
2019-03-22T16:31:04.665Z,1.57
2019-03-22T16:33:31.172Z,1.82
2019-03-22T16:35:57.569Z,1.77
2019-03-22T16:38:24.047Z,1.50
2019-03-22T16:40:50.490Z,1.60
2019-03-22T16:43:17.052Z,1.72
2019-03-22T16:45:43.827Z,1.62
2019-03-22T16:48:10.373Z,1.57
2019-03-22T16:50:36.852Z,1.80
2019-03-22T16:53:03.686Z,1.60
2019-03-22T16:55:30.292Z,1.98
2019-03-22T16:57:56.882Z,1.65
2019-03-22T17:00:23.511Z,2.62
2019-03-22T17:02:50.059Z,1.75
2019-03-22T17:05:16.424Z,1.57
2019-03-22T17:07:45.342Z,1.70
2019-03-22T17:10:11.847Z,1.60
2019-03-22T17:12:38.288Z,1.67
2019-03-22T17:15:05.204Z,1.72
2019-03-22T17:17:31.903Z,1.35
2019-03-22T17:19:58.828Z,2.72
2019-03-22T17:22:25.274Z,6.35
2019-03-22T17:24:51.744Z,3.65
2019-03-22T17:27:18.198Z,2.15
2019-03-22T17:29:44.762Z,4.30
2019-03-22T17:32:11.203Z,2.67
2019-03-22T17:34:37.791Z,3.05
2019-03-22T17:37:04.346Z,2.95
2019-03-22T17:39:30.836Z,2.75
2019-03-22T17:41:57.298Z,3.33
2019-03-22T17:44:23.762Z,4.20
2019-03-22T17:46:50.238Z,2.70
2019-03-22T17:49:16.591Z,2.73
2019-03-22T17:51:42.960Z,2.20
2019-03-22T17:54:09.306Z,2.17
2019-03-22T17:56:35.803Z,2.10
2019-03-22T17:59:02.347Z,1.83
2019-03-22T18:01:28.919Z,2.17
2019-03-22T18:03:55.375Z,2.40
2019-03-22T18:06:21.742Z,2.83
2019-03-22T18:08:48.096Z,1.77
2019-03-22T18:11:14.462Z,1.90
2019-03-22T18:13:40.848Z,4.63
2019-03-22T18:16:07.320Z,3.23
2019-03-22T18:18:33.775Z,1.97
2019-03-22T18:21:00.275Z,2.57
2019-03-22T18:23:35.392Z,2.00
2019-03-22T18:25:55.086Z,1.53
2019-03-22T18:28:21.636Z,1.70
2019-03-22T18:30:48.022Z,2.07
2019-03-22T18:33:14.408Z,1.80
2019-03-22T18:35:40.879Z,3.40
2019-03-22T18:38:07.326Z,2.27
2019-03-22T18:40:35.144Z,2.40
2019-03-22T18:43:01.506Z,2.50
2019-03-22T18:45:27.951Z,2.00
2019-03-22T18:47:54.414Z,2.30
2019-03-22T18:50:20.867Z,1.83
2019-03-22T18:52:47.351Z,2.10
2019-03-22T18:55:13.795Z,1.77
2019-03-22T18:57:40.259Z,2.27
2019-03-22T19:00:08.511Z,1.90
2019-03-22T19:02:34.988Z,2.20
2019-03-22T19:05:01.749Z,2.00
2019-03-22T19:07:28.106Z,2.53
2019-03-22T19:09:54.451Z,2.20
2019-03-22T19:12:20.919Z,2.20
2019-03-22T19:14:47.310Z,2.20
2019-03-22T19:17:13.683Z,2.43
2019-03-22T19:19:40.123Z,3.60
2019-03-22T19:22:06.591Z,3.63
2019-03-22T19:24:33.141Z,3.57
2019-03-22T19:26:59.713Z,4.40
2019-03-22T19:29:26.275Z,8.23
2019-03-22T19:31:52.748Z,10.13
2019-03-22T19:34:19.299Z,8.00
2019-03-22T19:36:45.756Z,5.70
2019-03-22T19:39:12.141Z,5.07
2019-03-22T19:41:38.583Z,5.50
2019-03-22T19:44:05.061Z,10.87
2019-03-22T19:46:31.508Z,8.47
2019-03-22T19:48:58.091Z,7.47
2019-03-22T19:51:24.557Z,6.70
2019-03-22T19:53:51.404Z,5.93
2019-03-22T19:56:17.863Z,6.83
2019-03-22T19:58:44.232Z,6.80
2019-03-22T20:01:10.785Z,6.20
2019-03-22T20:03:37.260Z,5.90
2019-03-22T20:06:03.911Z,7.13
2019-03-22T20:08:30.296Z,6.57
2019-03-22T20:10:56.657Z,6.63
2019-03-22T20:13:23.035Z,6.20
2019-03-22T20:15:49.426Z,5.73
2019-03-22T20:18:15.898Z,5.47
2019-03-22T20:20:42.270Z,5.87
2019-03-22T20:23:08.752Z,8.00
2019-03-22T20:25:35.186Z,9.97
2019-03-22T20:28:01.643Z,10.37
2019-03-22T20:30:28.016Z,12.33
2019-03-22T20:32:54.695Z,11.50
2019-03-22T20:35:21.238Z,11.37
2019-03-22T20:37:47.699Z,12.17
2019-03-22T20:40:14.870Z,10.97
2019-03-22T20:42:41.249Z,10.60
2019-03-22T20:45:08.019Z,10.00
2019-03-22T20:47:34.476Z,8.53
2019-03-22T20:50:01.046Z,8.37
2019-03-22T20:52:27.392Z,7.67
2019-03-22T20:54:53.763Z,7.80
2019-03-22T20:57:20.319Z,7.77
2019-03-22T20:59:46.702Z,7.87
2019-03-22T21:02:13.259Z,7.93
2019-03-22T21:04:39.719Z,7.33
2019-03-22T21:07:06.180Z,7.27
2019-03-22T21:09:32.628Z,7.03
2019-03-22T21:11:59.086Z,7.93
2019-03-22T21:14:25.451Z,7.10
2019-03-22T21:16:51.823Z,6.67
2019-03-22T21:19:18.274Z,6.67
2019-03-22T21:21:44.633Z,6.30
2019-03-22T21:24:11.079Z,6.50
2019-03-22T21:26:37.443Z,5.57
2019-03-22T21:29:03.966Z,5.40
2019-03-22T21:31:30.416Z,5.30
2019-03-22T21:33:56.805Z,6.33
2019-03-22T21:36:23.455Z,5.73
2019-03-22T21:38:49.944Z,5.33
2019-03-22T21:41:16.374Z,6.37
2019-03-22T21:43:42.833Z,6.37
2019-03-22T21:46:09.209Z,5.77
2019-03-22T21:48:35.646Z,5.83
2019-03-22T21:51:02.053Z,6.00
2019-03-22T21:53:28.895Z,6.10
2019-03-22T21:55:55.359Z,5.90
2019-03-22T21:58:21.807Z,6.23
2019-03-22T22:00:48.180Z,6.83
2019-03-22T22:03:14.663Z,6.50
2019-03-22T22:05:47.917Z,6.70
2019-03-22T22:08:09.547Z,6.20
2019-03-22T22:10:36.115Z,6.63
2019-03-22T22:13:02.691Z,6.47
2019-03-22T22:15:29.178Z,5.97
2019-03-22T22:17:55.660Z,6.70
2019-03-22T22:20:28.868Z,7.20
2019-03-22T22:22:50.388Z,6.30
2019-03-22T22:25:16.826Z,5.87
2019-03-22T22:27:43.422Z,6.00
2019-03-22T22:30:10.583Z,5.63
2019-03-22T22:32:37.070Z,6.13
2019-03-22T22:35:05.423Z,6.63
2019-03-22T22:37:31.821Z,6.23
2019-03-22T22:39:58.379Z,5.73
2019-03-22T22:42:24.847Z,5.73
2019-03-22T22:44:51.235Z,5.80
2019-03-22T22:47:17.705Z,6.07
2019-03-22T22:49:44.153Z,5.63
2019-03-22T22:52:10.614Z,6.77
2019-03-22T22:54:36.991Z,6.20
2019-03-22T22:57:03.452Z,5.67
2019-03-22T22:59:30.011Z,5.83
2019-03-22T23:01:56.589Z,5.80
2019-03-22T23:04:23.034Z,5.47
2019-03-22T23:06:49.506Z,6.20
2019-03-22T23:09:16.067Z,6.30
2019-03-22T23:11:42.424Z,6.20
2019-03-22T23:14:08.907Z,6.37
2019-03-22T23:16:35.275Z,6.97
2019-03-22T23:19:01.723Z,5.83
2019-03-22T23:21:28.287Z,6.87
2019-03-22T23:23:54.631Z,6.07
2019-03-22T23:26:21.955Z,7.03
2019-03-22T23:28:48.334Z,6.60
2019-03-22T23:31:14.709Z,6.67
2019-03-22T23:33:41.166Z,7.23
2019-03-22T23:36:07.623Z,6.40
2019-03-22T23:38:34.091Z,6.27
2019-03-22T23:41:00.448Z,5.90
2019-03-22T23:43:26.904Z,6.87
2019-03-22T23:45:53.282Z,6.93
2019-03-22T23:48:19.750Z,6.27
2019-03-22T23:50:46.187Z,6.23
2019-03-22T23:53:12.687Z,6.73
2019-03-22T23:55:39.142Z,6.20
2019-03-22T23:58:05.614Z,6.73
